WEST,Max TemperatureF,Mean TemperatureF,Min TemperatureF,Max Dew PointF,MeanDew PointF,Min DewpointF,Max Humidity, Mean Humidity, Min Humidity, Max Sea Level PressureIn, Mean Sea Level PressureIn, Min Sea Level PressureIn, Max VisibilityMiles, Mean VisibilityMiles, Min VisibilityMiles, Max Wind SpeedMPH, Mean Wind SpeedMPH, Max Gust SpeedMPH,PrecipitationIn, CloudCover, Events, WindDirDegrees
2013-8-1,112,95,78,65,56,45,51,30,5,30.01,29.90,29.70,6,6,6,23,6,37,0.00,2,,297
2013-8-2,100,86,72,68,64,61,73,52,22,30.06,29.98,29.85,6,6,6,14,7,25,0.00,3,,283
2013-8-3,99,85,71,66,64,60,83,52,22,30.09,30.04,29.91,6,6,4,15,5,,0.00,3,,281
2013-8-4,103,87,71,61,57,46,57,35,10,30.09,30.03,29.88,6,6,3,20,6,31,0.00,4,,230
2013-8-5,107,89,71,61,56,50,65,34,11,30.06,29.99,29.78,6,6,5,20,8,,0.00,2,,301
2013-8-6,109,90,70,61,55,45,61,35,7,30.04,29.98,29.78,6,6,1,26,7,59,0.20,2,Rain-Thunderstorm,262
2013-8-7,105,88,72,63,57,50,69,34,10,30.04,29.96,29.80,6,6,6,13,5,,0.00,2,,348
2013-8-8,104,86,69,63,56,46,69,39,9,30.04,29.98,29.81,6,6,6,13,5,,0.00,2,,318
2013-8-9,111,90,70,61,51,41,53,28,5,30.06,29.99,29.78,6,6,6,14,4,,0.00,2,,345
2013-8-10,91,86,80,50,45,43,34,24,12,30.04,30.00,29.91,6,6,6,5,2,,0.00,1,,125
2013-8-11,112,104,93,39,38,36,14,10,5,29.95,29.89,29.75,6,6,6,15,11,29,0.00,3,,48
2013-8-12,113,98,82,45,39,36,21,12,4,29.95,29.89,29.70,6,6,6,14,7,20,0.00,4,,51
2013-8-13,112,98,84,45,41,37,23,13,4,30.01,29.92,29.73,6,6,6,16,7,,0.00,2,,266
2013-8-14,109,94,79,48,42,36,32,16,4,30.04,29.96,29.78,6,6,6,15,6,,0.00,1,,50
2013-8-15,108,91,74,50,37,25,31,15,4,30.04,29.97,29.79,6,6,6,10,5,,0.00,1,,47
2013-8-16,105,89,73,59,47,32,42,24,4,30.09,30.02,29.84,6,6,6,13,5,18,0.00,1,,3
2013-8-17,98,86,74,59,53,41,57,33,9,30.09,29.98,29.77,6,6,6,16,7,26,0.00,1,,31
2013-8-18,104,88,71,61,57,48,64,36,12,30.06,29.88,29.71,6,6,4,14,7,,0.00,3,,328
2013-8-19,107,96,84,59,53,46,42,25,8,30.12,29.99,29.83,6,5,2,17,6,31,0.00,5,,266
2013-8-20,107,94,82,63,55,48,45,29,8,30.12,30.05,29.85,6,4,2,21,6,30,0.00,5,Rain-Thunderstorm,141
2013-8-21,105,90,75,64,58,41,65,37,11,30.12,30.04,29.86,6,5,3,12,5,,0.00,4,,291
2013-8-22,100,91,82,61,54,45,45,28,11,30.06,29.95,29.78,6,6,6,17,6,26,0.00,4,,117
2013-8-23,102,90,78,67,61,57,65,37,16,30.04,29.95,29.79,6,6,5,13,8,,0.00,3,,285
2013-8-24,100,86,71,66,59,50,78,46,12,30.06,30.00,29.83,6,6,6,15,6,,0.00,1,,280
2013-8-25,94,80,66,64,62,59,94,57,28,30.01,29.93,29.78,6,6,5,15,7,,0.00,2,,271
2013-8-26,88,75,62,63,60,55,94,68,38,29.95,29.92,29.81,6,6,5,10,7,,0.00,4,,262
2013-8-27,83,72,62,62,60,57,94,67,38,29.98,29.94,29.83,6,6,4,10,6,,0.00,3,,257
2013-8-28,87,74,62,61,60,59,78,59,32,30.01,29.95,29.82,6,6,6,12,6,,0.00,3,,275
2013-8-29,89,76,63,62,60,58,83,59,29,30.04,29.99,29.86,6,6,6,12,6,,0.00,2,,278
2013-8-30,92,78,63,63,61,59,88,59,27,30.09,30.02,29.88,6,6,4,14,5,,0.00,,,270
2013-8-31,96,81,66,64,59,46,83,52,14,30.06,30.01,29.84,6,6,6,13,5,,0.00,1,,290